createdAt,value
2022-11-04T04:53:14.668Z,13.88
2022-11-04T04:56:18.994Z,6.50
2022-11-04T04:59:23.360Z,6.25
2022-11-04T05:02:27.674Z,5.75
2022-11-04T05:05:32.459Z,5.32
2022-11-04T05:08:36.744Z,11.02
2022-11-04T05:11:41.186Z,6.35
2022-11-04T05:14:45.775Z,5.32
2022-11-04T05:17:54.587Z,11.48
2022-11-04T05:20:58.992Z,6.20
2022-11-04T05:24:03.555Z,29.38
2022-11-04T05:27:07.780Z,5.07
2022-11-04T05:30:12.779Z,5.32
2022-11-04T05:33:17.130Z,6.03
2022-11-04T05:36:21.597Z,7.30
2022-11-04T05:39:26.037Z,10.80
2022-11-04T05:42:30.614Z,5.93
2022-11-04T05:45:34.917Z,6.50
2022-11-04T05:48:40.736Z,7.95
2022-11-04T05:51:45.537Z,4.60
2022-11-04T05:54:49.802Z,20.85
2022-11-04T05:57:54.892Z,5.13
2022-11-04T06:01:30.178Z,7.47
2022-11-04T06:04:35.145Z,13.32
2022-11-04T06:07:39.396Z,14.70
2022-11-04T06:10:44.982Z,6.88
2022-11-04T06:13:49.349Z,10.27
2022-11-04T06:16:53.913Z,10.23
2022-11-04T06:19:58.168Z,6.63
2022-11-04T06:23:02.604Z,5.88
2022-11-04T06:26:07.567Z,5.22
2022-11-04T06:29:12.424Z,7.72
2022-11-04T06:32:19.174Z,12.90
2022-11-04T06:35:23.800Z,6.45
2022-11-04T06:38:30.882Z,16.48
2022-11-04T06:41:35.421Z,13.98
2022-11-04T06:44:39.966Z,14.85
2022-11-04T06:47:44.500Z,10.38
2022-11-04T06:50:48.839Z,4.80
2022-11-04T06:53:53.637Z,5.47
2022-11-04T06:56:58.055Z,6.73
2022-11-04T07:00:02.701Z,6.03
2022-11-04T07:03:07.849Z,9.60
2022-11-04T07:06:13.370Z,12.75
2022-11-04T07:09:18.094Z,8.48
2022-11-04T07:12:24.448Z,10.32
2022-11-04T07:15:28.995Z,6.97
2022-11-04T07:18:33.315Z,5.55
2022-11-04T07:21:37.695Z,4.25
2022-11-04T07:24:42.187Z,6.68
2022-11-04T07:27:46.872Z,9.68
2022-11-04T07:30:51.137Z,8.40
2022-11-04T07:33:57.114Z,6.18
2022-11-04T07:37:02.060Z,10.27
2022-11-04T07:40:09.716Z,8.32
2022-11-04T07:43:14.499Z,7.65
2022-11-04T07:46:20.076Z,20.42
2022-11-04T07:49:24.833Z,9.82
2022-11-04T07:52:29.563Z,18.67
2022-11-04T07:55:36.772Z,16.13
2022-11-04T07:58:44.946Z,11.00
2022-11-04T08:01:49.956Z,7.67
2022-11-04T08:04:54.323Z,13.73
2022-11-04T08:08:00.106Z,22.48
2022-11-04T08:17:25.254Z,19.98
2022-11-04T08:20:29.983Z,22.77
2022-11-04T08:23:36.357Z,29.25
2022-11-04T08:26:40.841Z,71.90
2022-11-04T08:29:45.362Z,59.40
2022-11-04T08:32:49.816Z,28.02
2022-11-04T08:35:56.536Z,33.55
2022-11-04T08:39:07.382Z,41.42
2022-11-04T08:42:14.542Z,31.10
2022-11-04T08:45:19.092Z,25.27
2022-11-04T08:48:25.770Z,32.40
2022-11-04T08:51:31.960Z,51.65
2022-11-04T08:54:37.150Z,43.90
2022-11-04T08:57:41.941Z,56.27
2022-11-04T09:00:46.360Z,25.53
2022-11-04T09:03:51.665Z,70.32
2022-11-04T09:06:57.098Z,64.53
2022-11-04T09:10:02.909Z,46.13
2022-11-04T09:16:15.110Z,39.80
2022-11-04T09:19:19.676Z,46.70
2022-11-04T09:22:23.938Z,23.67
2022-11-04T09:25:28.710Z,38.88
2022-11-04T09:28:33.141Z,32.75
2022-11-04T09:31:38.643Z,34.72
2022-11-04T09:34:43.284Z,29.58
2022-11-04T09:37:47.968Z,63.47
2022-11-04T09:40:52.861Z,62.72
2022-11-04T09:44:14.200Z,47.50
2022-11-04T09:47:21.910Z,46.88
2022-11-04T09:50:32.234Z,26.45
2022-11-04T09:53:48.837Z,17.75
2022-11-04T09:56:57.431Z,25.05
2022-11-04T10:00:01.995Z,25.67
2022-11-04T10:03:16.269Z,21.92
2022-11-04T10:06:44.946Z,34.00
2022-11-04T10:10:02.239Z,22.52
2022-11-04T10:13:20.766Z,102.97
2022-11-04T10:16:32.446Z,57.45
2022-11-04T10:19:47.791Z,46.80
2022-11-04T10:22:59.674Z,58.80
2022-11-04T10:26:20.392Z,85.72
2022-11-04T10:29:33.020Z,173.02
2022-11-04T10:32:47.025Z,151.50
2022-11-04T10:36:07.271Z,135.77
2022-11-04T10:39:28.334Z,129.52
2022-11-04T10:42:34.544Z,71.38
2022-11-04T10:45:50.698Z,111.72
2022-11-04T10:49:06.841Z,229.23
2022-11-04T10:55:30.857Z,201.27
2022-11-04T10:58:46.169Z,288.92
2022-11-04T11:01:56.074Z,76.00
2022-11-04T11:05:17.180Z,144.93
2022-11-04T11:08:34.381Z,204.27
2022-11-04T11:11:41.028Z,88.80
2022-11-04T11:14:52.568Z,100.88
2022-11-04T11:18:18.605Z,136.98
2022-11-04T11:21:26.230Z,130.32
2022-11-04T11:24:35.602Z,161.70
2022-11-04T11:27:40.059Z,162.85
2022-11-04T11:30:48.010Z,130.43
2022-11-04T11:34:00.705Z,147.00
2022-11-04T11:37:06.463Z,175.43
2022-11-04T11:40:26.241Z,142.63
2022-11-04T11:43:33.732Z,113.07
2022-11-04T11:46:39.257Z,118.20
2022-11-04T11:49:43.759Z,127.15
2022-11-04T11:52:49.724Z,188.65
2022-11-04T11:56:16.037Z,147.13
2022-11-04T12:03:19.414Z,267.02
2022-11-04T12:06:29.235Z,152.45
2022-11-04T12:09:39.764Z,188.55
2022-11-04T12:12:47.594Z,181.65
2022-11-04T12:16:11.413Z,165.90
2022-11-04T12:19:27.056Z,160.60
2022-11-04T12:23:14.910Z,235.57
2022-11-04T12:26:39.068Z,111.57
2022-11-04T12:30:01.606Z,134.30
2022-11-04T12:33:28.101Z,163.38
2022-11-04T12:36:55.018Z,145.98
2022-11-04T12:40:05.258Z,124.78
2022-11-04T12:43:18.242Z,173.15
2022-11-04T12:46:34.348Z,148.27
2022-11-04T12:49:55.028Z,120.60
2022-11-04T12:54:28.154Z,153.25
2022-11-04T12:57:53.833Z,86.60
2022-11-04T13:01:16.424Z,246.57
2022-11-04T13:04:30.313Z,155.90
2022-11-04T13:07:54.281Z,290.25
2022-11-04T13:11:23.499Z,431.23
2022-11-04T13:14:43.037Z,158.15
2022-11-04T13:17:51.888Z,190.57
2022-11-04T13:21:07.415Z,190.50
2022-11-04T13:24:32.532Z,212.57
2022-11-04T13:27:41.141Z,109.57
2022-11-04T13:30:56.934Z,216.25
2022-11-04T13:34:23.201Z,231.98
2022-11-04T13:40:59.105Z,127.97
2022-11-04T13:44:14.780Z,115.18
2022-11-04T13:47:37.634Z,172.02
2022-11-04T13:50:42.570Z,137.80
2022-11-04T13:53:50.513Z,145.80
2022-11-04T13:57:17.281Z,154.23
2022-11-04T14:00:27.843Z,143.80
2022-11-04T14:03:38.408Z,151.52
2022-11-04T14:07:09.267Z,134.80
2022-11-04T14:10:46.444Z,121.07
2022-11-04T14:14:03.798Z,142.85
2022-11-04T14:17:36.157Z,132.20
2022-11-04T14:21:10.163Z,138.60
2022-11-04T14:24:16.575Z,129.02
2022-11-04T14:27:39.613Z,83.13
2022-11-04T14:30:54.775Z,138.05
2022-11-04T14:33:59.399Z,118.57
2022-11-04T14:37:17.024Z,190.05
2022-11-04T14:40:30.378Z,117.70
2022-11-04T14:43:36.844Z,97.68
2022-11-04T14:46:51.023Z,122.45
2022-11-04T14:50:01.176Z,301.13
2022-11-04T14:53:07.510Z,133.02
2022-11-04T14:56:24.192Z,284.75
2022-11-04T14:59:29.818Z,179.32
2022-11-04T15:02:36.418Z,153.05
2022-11-04T15:05:50.636Z,154.35
2022-11-04T15:08:56.779Z,181.70
2022-11-04T15:15:46.174Z,57.47
2022-11-04T15:18:52.885Z,116.53
2022-11-04T15:21:57.501Z,59.70
2022-11-04T15:25:06.693Z,57.13
2022-11-04T15:28:24.136Z,40.58
2022-11-04T15:31:32.773Z,61.88
2022-11-04T15:34:37.953Z,43.30
2022-11-04T15:37:44.792Z,66.55
2022-11-04T15:40:51.669Z,48.78
2022-11-04T15:43:56.303Z,44.85
2022-11-04T15:47:03.729Z,57.55
2022-11-04T15:50:26.158Z,84.63
2022-11-04T15:53:30.788Z,83.85
2022-11-04T15:56:43.619Z,58.33
2022-11-04T16:00:02.974Z,50.30
2022-11-04T16:03:21.398Z,33.80
2022-11-04T16:06:45.061Z,440.45
2022-11-04T16:09:56.956Z,49.30
2022-11-04T16:13:22.216Z,34.67
2022-11-04T16:16:28.970Z,42.90
2022-11-04T16:19:33.490Z,42.40
2022-11-04T16:22:44.038Z,60.80
2022-11-04T16:25:49.353Z,52.33
2022-11-04T16:28:59.085Z,46.78
2022-11-04T16:32:27.418Z,54.88
2022-11-04T16:35:32.680Z,50.70
2022-11-04T16:38:37.019Z,38.55
2022-11-04T16:41:42.617Z,41.13
2022-11-04T16:44:56.818Z,134.23
2022-11-04T16:48:01.543Z,53.08
2022-11-04T16:51:07.461Z,53.30
2022-11-04T16:54:13.215Z,42.53
2022-11-04T16:57:18.258Z,37.78
2022-11-04T17:00:25.619Z,48.33
2022-11-04T17:03:29.854Z,40.20
2022-11-04T17:09:40.614Z,40.05
2022-11-04T17:12:45.147Z,39.42
2022-11-04T17:15:49.590Z,46.10
2022-11-04T17:18:53.768Z,46.97
2022-11-04T17:21:59.644Z,47.10
2022-11-04T17:28:09.733Z,41.35
2022-11-04T17:31:20.477Z,32.15
2022-11-04T17:34:26.694Z,27.50
2022-11-04T17:37:31.077Z,31.85
2022-11-04T17:40:55.453Z,35.33
2022-11-04T17:44:02.964Z,40.45
2022-11-04T17:47:07.512Z,34.33
2022-11-04T17:50:11.726Z,35.97
2022-11-04T17:53:16.510Z,34.30
2022-11-04T17:56:23.352Z,30.25
2022-11-04T17:59:31.101Z,32.92
2022-11-04T18:02:38.631Z,57.30
2022-11-04T18:05:43.021Z,28.23
2022-11-04T18:08:47.739Z,27.17
2022-11-04T18:12:10.440Z,23.92
2022-11-04T18:15:17.965Z,27.75
2022-11-04T18:18:22.391Z,27.20
2022-11-04T18:21:27.577Z,35.80
2022-11-04T18:24:32.192Z,27.13
2022-11-04T18:27:36.922Z,29.67
2022-11-04T18:30:41.985Z,31.95
2022-11-04T18:33:47.351Z,27.48
2022-11-04T18:36:51.601Z,28.20
2022-11-04T18:39:56.096Z,32.60
2022-11-04T18:43:07.573Z,29.08
2022-11-04T18:46:15.712Z,29.88
2022-11-04T18:49:21.730Z,28.17
2022-11-04T18:52:28.816Z,34.25
2022-11-04T18:55:34.548Z,27.23
2022-11-04T19:01:46.612Z,24.95
2022-11-04T19:04:52.552Z,27.98
2022-11-04T19:11:10.407Z,29.15
2022-11-04T19:14:20.406Z,33.17
2022-11-04T19:17:24.630Z,36.20
2022-11-04T19:20:29.247Z,57.75
2022-11-04T19:23:35.141Z,38.38
2022-11-04T19:29:43.423Z,37.28
2022-11-04T19:32:47.579Z,33.92
2022-11-04T19:35:54.082Z,28.52
2022-11-04T19:38:58.568Z,37.50
2022-11-04T19:42:22.080Z,30.15
2022-11-04T19:45:27.141Z,25.33
2022-11-04T19:48:32.490Z,26.80
2022-11-04T19:51:37.479Z,32.65
2022-11-04T19:54:41.744Z,27.42
2022-11-04T19:57:46.291Z,33.00
2022-11-04T20:00:51.867Z,39.65
2022-11-04T20:07:02.043Z,35.45
2022-11-04T20:10:07.022Z,43.42
2022-11-04T20:13:39.641Z,37.60
2022-11-04T20:16:44.255Z,40.03
2022-11-04T20:19:52.644Z,29.88
2022-11-04T20:22:56.969Z,38.90
2022-11-04T20:26:31.663Z,40.70
2022-11-04T20:29:35.862Z,36.05
2022-11-04T20:32:40.438Z,40.00
2022-11-04T20:35:44.655Z,29.98
2022-11-04T20:38:49.379Z,32.45
2022-11-04T20:41:54.687Z,33.92
2022-11-04T20:44:59.256Z,27.13
2022-11-04T20:48:03.458Z,44.60
2022-11-04T20:51:14.664Z,31.27
2022-11-04T20:54:21.766Z,39.67
2022-11-04T20:57:25.912Z,34.60
2022-11-04T21:00:32.126Z,30.27
2022-11-04T21:03:36.743Z,35.63
2022-11-04T21:06:41.938Z,32.93
2022-11-04T21:09:46.475Z,33.75
2022-11-04T21:12:53.187Z,28.70
2022-11-04T21:15:59.238Z,31.52
2022-11-04T21:19:04.666Z,28.67
2022-11-04T21:22:08.961Z,70.72
2022-11-04T21:25:13.361Z,49.50
2022-11-04T21:28:17.700Z,35.60
2022-11-04T21:31:22.737Z,40.03
2022-11-04T21:34:28.322Z,44.53
2022-11-04T21:37:36.085Z,40.08
2022-11-04T21:40:41.930Z,39.65
2022-11-04T21:43:46.158Z,33.45
2022-11-04T21:46:52.020Z,28.75
2022-11-04T21:49:57.088Z,28.10
2022-11-04T21:53:01.375Z,53.63
2022-11-04T21:56:13.071Z,83.82
2022-11-04T21:59:18.667Z,47.17
2022-11-04T22:02:23.392Z,74.72
2022-11-04T22:05:27.756Z,109.18
2022-11-04T22:08:32.841Z,35.38
2022-11-04T22:11:39.872Z,32.47
2022-11-04T22:14:44.573Z,30.48
2022-11-04T22:17:48.870Z,28.95
2022-11-04T22:20:53.918Z,32.35
2022-11-04T22:23:59.084Z,46.93
2022-11-04T22:27:03.912Z,35.33
2022-11-04T22:30:09.364Z,49.07
2022-11-04T22:33:13.741Z,67.72
2022-11-04T22:36:18.177Z,49.47
2022-11-04T22:39:22.913Z,307.15
2022-11-04T22:42:27.257Z,100.93
2022-11-04T22:45:31.551Z,230.52
2022-11-04T22:48:37.327Z,23.10
2022-11-04T22:51:41.644Z,26.33
2022-11-04T22:54:46.083Z,23.23
2022-11-04T22:57:50.585Z,28.25
2022-11-04T23:00:57.488Z,21.55
2022-11-04T23:04:02.068Z,19.00
2022-11-04T23:07:06.571Z,24.17
2022-11-04T23:10:29.588Z,26.05
2022-11-04T23:13:52.805Z,25.20
2022-11-04T23:17:15.687Z,22.40
2022-11-04T23:20:21.943Z,20.40
2022-11-04T23:23:45.352Z,23.63
2022-11-04T23:26:49.815Z,26.40
2022-11-04T23:30:19.982Z,32.08
2022-11-04T23:33:44.228Z,20.02
2022-11-04T23:37:07.539Z,19.23
2022-11-04T23:40:12.605Z,22.40
2022-11-04T23:43:16.892Z,26.50
2022-11-04T23:46:43.151Z,23.67
2022-11-04T23:50:06.822Z,35.33
2022-11-04T23:53:32.048Z,22.30
2022-11-04T23:56:54.993Z,22.08
